Time;durP1;ratioP1;P1;durP2;ratioP2;P2;SDS_P1;SDS_P2;PMS_P1;PMS_P2;Temp;Humidity;BMP_temperature;BMP_pressure;BME280_temperature;BME280_humidity;BME280_pressure;Samples;Min_cycle;Max_cycle;Signal;HPM_P1;HPM_P2
2024/04/18 00:01:37;;;;;;;;;9.75;9.75;;;;;;;;6491222;39;8953;-62
2024/04/18 00:07:39;;;;;;;;;12.75;12.00;;;;;;;;6490386;46;9001;-61
2024/04/18 00:13:47;;;;;;;;;14.25;14.25;;;;;;;;6491141;31;8895;-61
2024/04/18 00:20:09;;;;;;;;;16.25;14.00;;;;;;;;6491129;39;8910;-60
2024/04/18 00:26:14;;;;;;;;;11.75;11.75;;;;;;;;6490586;39;8891;-60
2024/04/18 00:32:37;;;;;;;;;15.00;15.00;;;;;;;;6491509;39;8919;-60
2024/04/18 00:39:00;;;;;;;;;15.50;15.00;;;;;;;;6490955;46;8900;-60
2024/04/18 00:45:06;;;;;;;;;11.50;9.25;;;;;;;;6490830;39;8963;-62
2024/04/18 00:51:18;;;;;;;;;15.75;14.50;;;;;;;;6491095;46;8911;-61
2024/04/18 00:57:37;;;;;;;;;11.25;10.75;;;;;;;;6491038;46;8903;-60
2024/04/18 01:03:44;;;;;;;;;16.00;15.50;;;;;;;;6490951;39;8947;-60
2024/04/18 01:10:11;;;;;;;;;15.75;15.75;;;;;;;;6491365;39;9106;-60
2024/04/18 01:16:23;;;;;;;;;17.25;15.00;;;;;;;;6490768;39;9010;-62
2024/04/18 01:22:29;;;;;;;;;17.00;16.50;;;;;;;;6489372;39;8875;-62
2024/04/18 01:28:33;;;;;;;;;16.75;15.25;;;;;;;;6491456;39;8860;-60
2024/04/18 01:34:37;;;;;;;;;19.50;17.00;;;;;;;;6490467;39;8978;-60
2024/04/18 01:40:58;;;;;;;;;11.00;11.00;;;;;;;;6490984;39;8891;-61
2024/04/18 01:47:19;;;;;;;;;18.25;16.50;;;;;;;;6490404;31;8993;-60
2024/04/18 01:53:44;;;;;;;;;17.00;15.67;;;;;;;;6491111;46;8911;-60
2024/04/18 01:59:53;;;;;;;;;18.00;15.75;;;;;;;;6489773;46;8916;-60
2024/04/18 02:05:56;;;;;;;;;7.75;7.75;;;;;;;;6490490;31;8927;-62
2024/04/18 02:12:18;;;;;;;;;15.75;15.75;;;;;;;;6490502;39;8900;-62
2024/04/18 02:18:40;;;;;;;;;24.00;20.25;;;;;;;;6489991;36;8931;-62
2024/04/18 02:25:09;;;;;;;;;19.00;18.50;;;;;;;;6489582;47;9023;-60
2024/04/18 02:31:12;;;;;;;;;19.50;19.00;;;;;;;;6491561;39;9519;-61
2024/04/18 02:37:29;;;;;;;;;22.75;18.50;;;;;;;;6492148;39;8876;-62
2024/04/18 02:43:34;;;;;;;;;23.75;23.75;;;;;;;;6492803;39;8957;-61
2024/04/18 02:49:37;;;;;;;;;19.50;17.00;;;;;;;;6491639;46;8868;-60
2024/04/18 02:55:47;;;;;;;;;26.50;23.50;;;;;;;;6491544;46;8919;-61
2024/04/18 03:02:05;;;;;;;;;28.50;26.00;;;;;;;;6492517;46;8904;-61
2024/04/18 03:08:11;;;;;;;;;27.75;24.75;;;;;;;;6492574;39;8929;-61
2024/04/18 03:14:22;;;;;;;;;29.25;25.00;;;;;;;;6490761;39;8925;-61
2024/04/18 03:21:01;;;;;;;;;29.50;26.50;;;;;;;;6492345;31;8889;-67
2024/04/18 03:27:19;;;;;;;;;27.75;26.50;;;;;;;;6492427;39;8911;-60
2024/04/18 03:33:21;;;;;;;;;27.75;25.75;;;;;;;;6491451;46;8908;-60
2024/04/18 03:39:24;;;;;;;;;27.25;24.50;;;;;;;;6491583;39;8841;-62
2024/04/18 03:45:28;;;;;;;;;30.75;27.00;;;;;;;;6491237;46;8948;-60
2024/04/18 03:51:55;;;;;;;;;28.50;22.50;;;;;;;;6491739;31;8924;-60
2024/04/18 03:58:09;;;;;;;;;26.50;25.00;;;;;;;;6491386;31;9154;-61
2024/04/18 04:04:26;;;;;;;;;27.00;25.75;;;;;;;;6472187;31;9013;-63
2024/04/18 04:10:33;;;;;;;;;31.00;25.75;;;;;;;;4590691;36;20001762;-61
2024/04/18 04:16:35;;;;;;;;;33.25;29.25;;;;;;;;6493564;39;8921;-61
2024/04/18 04:22:53;;;;;;;;;29.25;26.00;;;;;;;;6493645;31;8953;-63
2024/04/18 04:28:59;;;;;;;;;30.75;28.00;;;;;;;;6494602;39;8899;-63
2024/04/18 04:35:11;;;;;;;;;29.00;27.50;;;;;;;;6492354;39;8963;-62
2024/04/18 04:41:14;;;;;;;;;33.75;28.25;;;;;;;;6494799;31;9008;-61
2024/04/18 04:47:17;;;;;;;;;29.00;25.00;;;;;;;;6493410;31;8943;-63
2024/04/18 04:53:22;;;;;;;;;36.00;34.00;;;;;;;;6491730;46;8987;-62
2024/04/18 04:59:42;;;;;;;;;32.75;30.75;;;;;;;;6493847;39;8883;-63
2024/04/18 05:05:48;;;;;;;;;29.75;25.75;;;;;;;;6491761;39;8993;-63
2024/04/18 05:12:13;;;;;;;;;35.50;32.50;;;;;;;;6493033;46;8826;-63
2024/04/18 05:18:15;;;;;;;;;34.75;33.25;;;;;;;;6491868;46;8889;-63
2024/04/18 05:24:18;;;;;;;;;30.25;29.25;;;;;;;;6493238;31;8890;-62
2024/04/18 05:36:48;;;;;;;;;39.25;34.75;;;;;;;;6490297;31;8964;-61
2024/04/18 05:43:18;;;;;;;;;37.00;33.25;;;;;;;;6470953;46;8915;-63
2024/04/18 05:49:28;;;;;;;;;39.25;34.25;;;;;;;;6491479;39;9025;-64
2024/04/18 05:55:32;;;;;;;;;36.00;33.25;;;;;;;;6489969;46;9023;-62
2024/04/18 06:01:35;;;;;;;;;39.25;31.25;;;;;;;;6490932;39;8960;-63
2024/04/18 06:07:38;;;;;;;;;37.75;33.25;;;;;;;;6491582;46;8882;-62
2024/04/18 06:13:43;;;;;;;;;45.25;40.00;;;;;;;;6492878;31;8963;-63
2024/04/18 06:19:50;;;;;;;;;37.75;36.75;;;;;;;;6329902;31;10002977;-64
2024/04/18 06:26:17;;;;;;;;;46.25;38.50;;;;;;;;6489583;39;8922;-62
2024/04/18 06:32:25;;;;;;;;;40.75;36.00;;;;;;;;6488854;47;9075;-63
2024/04/18 06:38:27;;;;;;;;;39.25;33.50;;;;;;;;6491129;47;8815;-62
2024/04/18 06:44:40;;;;;;;;;29.50;28.25;;;;;;;;6490803;39;8924;-63
2024/04/18 06:50:46;;;;;;;;;40.25;36.50;;;;;;;;6490981;47;8879;-63
2024/04/18 06:56:51;;;;;;;;;65.50;51.25;;;;;;;;6491028;46;8951;-62
2024/04/18 07:02:57;;;;;;;;;49.00;40.50;;;;;;;;6490480;39;8923;-64
2024/04/18 07:09:22;;;;;;;;;46.75;37.75;;;;;;;;6491691;39;9504;-64
2024/04/18 07:15:46;;;;;;;;;39.00;36.50;;;;;;;;6491928;46;8966;-62
2024/04/18 07:22:08;;;;;;;;;46.25;41.00;;;;;;;;6494241;31;9020;-62
2024/04/18 07:28:31;;;;;;;;;42.50;37.00;;;;;;;;6493014;39;8840;-63
2024/04/18 07:34:36;;;;;;;;;41.75;38.00;;;;;;;;6494930;39;8917;-63
2024/04/18 07:40:47;;;;;;;;;38.25;32.00;;;;;;;;6493431;31;8925;-64
2024/04/18 07:46:55;;;;;;;;;40.50;37.75;;;;;;;;6493486;31;8890;-63
2024/04/18 07:53:04;;;;;;;;;44.50;37.75;;;;;;;;6491312;31;8990;-63
2024/04/18 07:59:06;;;;;;;;;46.25;39.75;;;;;;;;6489894;31;9064;-62
2024/04/18 08:05:12;;;;;;;;;42.25;39.00;;;;;;;;6492499;39;9040;-63
2024/04/18 08:11:14;;;;;;;;;46.00;39.25;;;;;;;;6491672;46;9089;-62
2024/04/18 08:17:25;;;;;;;;;47.00;39.25;;;;;;;;6491511;39;8894;-63
2024/04/18 08:23:37;;;;;;;;;42.50;39.50;;;;;;;;6492692;46;8885;-64
2024/04/18 08:29:50;;;;;;;;;44.00;39.25;;;;;;;;6492039;39;8986;-63
2024/04/18 08:35:55;;;;;;;;;46.75;38.25;;;;;;;;6491545;31;8950;-64
2024/04/18 08:42:01;;;;;;;;;43.75;38.75;;;;;;;;6492194;39;9044;-65
2024/04/18 08:48:10;;;;;;;;;44.50;39.00;;;;;;;;6493101;46;8853;-62
2024/04/18 08:54:13;;;;;;;;;48.50;41.75;;;;;;;;6492121;39;8998;-62
2024/04/18 09:00:17;;;;;;;;;38.50;35.25;;;;;;;;6492165;39;8948;-63
2024/04/18 09:06:20;;;;;;;;;36.75;31.75;;;;;;;;6491604;39;8975;-63
2024/04/18 09:12:24;;;;;;;;;37.50;33.50;;;;;;;;6491240;46;8959;-64
2024/04/18 09:18:35;;;;;;;;;53.50;42.75;;;;;;;;6492040;46;8890;-63
2024/04/18 09:24:45;;;;;;;;;29.00;27.25;;;;;;;;6492167;31;8934;-63
2024/04/18 09:30:54;;;;;;;;;33.25;31.00;;;;;;;;6490765;39;8892;-64
2024/04/18 09:37:05;;;;;;;;;29.25;28.75;;;;;;;;6492142;39;9000;-64
2024/04/18 09:43:31;;;;;;;;;31.00;30.00;;;;;;;;6491350;39;8907;-62
2024/04/18 09:49:47;;;;;;;;;33.00;32.25;;;;;;;;6492335;39;8923;-63
2024/04/18 09:55:53;;;;;;;;;33.75;32.50;;;;;;;;6490012;39;9056;-64
2024/04/18 10:02:06;;;;;;;;;33.50;32.00;;;;;;;;6493208;31;9527;-64
2024/04/18 10:08:13;;;;;;;;;30.00;27.00;;;;;;;;6489653;39;8931;-63
2024/04/18 10:14:15;;;;;;;;;32.75;29.75;;;;;;;;6489381;39;9056;-63
2024/04/18 10:20:18;;;;;;;;;33.00;28.75;;;;;;;;6490822;46;8892;-64
2024/04/18 10:26:21;;;;;;;;;36.00;34.00;;;;;;;;6491139;47;8860;-63
2024/04/18 10:32:30;;;;;;;;;37.67;34.33;;;;;;;;6491677;39;8928;-64
2024/04/18 10:38:33;;;;;;;;;29.33;26.33;;;;;;;;6491039;39;8893;-62
2024/04/18 10:44:42;;;;;;;;;28.33;25.00;;;;;;;;6491304;47;8871;-66
2024/04/18 10:50:53;;;;;;;;;27.67;25.33;;;;;;;;6491315;46;8938;-63
2024/04/18 10:56:56;;;;;;;;;28.67;27.33;;;;;;;;6493166;39;8871;-63
2024/04/18 11:02:59;;;;;;;;;24.33;22.00;;;;;;;;6492831;39;9493;-64
2024/04/18 11:09:01;;;;;;;;;19.67;17.00;;;;;;;;6493139;39;8894;-64
2024/04/18 11:15:06;;;;;;;;;18.33;18.33;;;;;;;;6494280;31;8876;-63
2024/04/18 11:21:12;;;;;;;;;17.00;17.00;;;;;;;;6492030;46;9030;-63
2024/04/18 11:27:14;;;;;;;;;45.67;39.00;;;;;;;;6493411;31;8836;-63
2024/04/18 11:33:20;;;;;;;;;37.67;33.33;;;;;;;;6493636;39;8919;-62
2024/04/18 11:39:32;;;;;;;;;10.00;10.00;;;;;;;;6491998;39;8904;-64
2024/04/18 11:45:37;;;;;;;;;14.00;12.67;;;;;;;;6492546;46;8849;-63
2024/04/18 11:51:43;;;;;;;;;20.33;19.33;;;;;;;;6492345;39;8914;-63
2024/04/18 11:57:48;;;;;;;;;17.00;15.00;;;;;;;;6491873;46;8923;-64
2024/04/18 12:04:10;;;;;;;;;16.00;15.00;;;;;;;;6492248;31;8984;-63
2024/04/18 12:10:13;;;;;;;;;17.00;15.33;;;;;;;;6492000;46;8888;-63
2024/04/18 12:16:17;;;;;;;;;17.00;17.00;;;;;;;;6493519;31;8874;-64
2024/04/18 12:22:22;;;;;;;;;18.00;14.00;;;;;;;;6492406;46;8913;-61
2024/04/18 12:28:48;;;;;;;;;14.00;14.00;;;;;;;;6493841;39;8893;-64
2024/04/18 12:34:50;;;;;;;;;9.67;9.67;;;;;;;;6492537;39;9571;-64
2024/04/18 12:40:59;;;;;;;;;12.00;11.00;;;;;;;;6491977;39;9032;-63
2024/04/18 12:47:04;;;;;;;;;9.67;9.67;;;;;;;;6493128;46;8887;-64
2024/04/18 12:53:18;;;;;;;;;14.33;12.00;;;;;;;;6492080;39;8892;-61
2024/04/18 12:59:29;;;;;;;;;8.67;8.67;;;;;;;;6492421;39;8844;-64
2024/04/18 13:05:53;;;;;;;;;10.67;10.33;;;;;;;;6492226;31;9003;-64
2024/04/18 13:11:57;;;;;;;;;13.00;11.00;;;;;;;;6492074;39;8883;-63
2024/04/18 13:18:01;;;;;;;;;11.33;11.33;;;;;;;;6488849;46;8971;-63
2024/04/18 13:24:09;;;;;;;;;11.00;11.00;;;;;;;;6492105;39;8888;-62
2024/04/18 13:30:27;;;;;;;;;9.00;9.00;;;;;;;;6490818;39;8939;-63
2024/04/18 13:36:38;;;;;;;;;10.33;9.33;;;;;;;;6490462;39;8974;-63
2024/04/18 13:42:50;;;;;;;;;8.33;8.33;;;;;;;;6492879;39;9022;-62
2024/04/18 13:49:04;;;;;;;;;11.33;9.67;;;;;;;;6492099;39;8909;-63
2024/04/18 13:55:25;;;;;;;;;10.00;10.00;;;;;;;;6401443;46;5001757;-63
2024/04/18 14:01:31;;;;;;;;;8.00;8.00;;;;;;;;6492046;39;8957;-64
2024/04/18 14:07:42;;;;;;;;;10.33;9.33;;;;;;;;6520463;36;8915;-63
2024/04/18 14:14:03;;;;;;;;;13.67;12.67;;;;;;;;6492591;31;8956;-64
2024/04/18 14:20:08;;;;;;;;;2.00;2.00;;;;;;;;6491577;39;8942;-61
2024/04/18 14:26:22;;;;;;;;;2.00;2.00;;;;;;;;6492615;46;8829;-61
2024/04/18 14:32:26;;;;;;;;;1.33;1.33;;;;;;;;6491436;47;9383;-64
2024/04/18 14:38:52;;;;;;;;;1.00;1.00;;;;;;;;6492129;47;8842;-64
2024/04/18 14:44:57;;;;;;;;;3.00;2.00;;;;;;;;6492778;39;8919;-63
2024/04/18 14:50:59;;;;;;;;;1.33;1.00;;;;;;;;6491550;39;8843;-63
2024/04/18 14:57:23;;;;;;;;;1.00;1.00;;;;;;;;6491828;39;8933;-63
2024/04/18 15:03:27;;;;;;;;;3.00;1.00;;;;;;;;6491105;47;8925;-63
2024/04/18 15:09:50;;;;;;;;;2.00;1.00;;;;;;;;6491947;39;8859;-64
2024/04/18 15:15:52;;;;;;;;;1.67;1.67;;;;;;;;6491620;31;8988;-63
2024/04/18 15:21:54;;;;;;;;;3.33;3.00;;;;;;;;6492372;39;8887;-65
2024/04/18 15:27:58;;;;;;;;;1.00;1.00;;;;;;;;6491077;31;8873;-65
2024/04/18 15:34:02;;;;;;;;;4.00;4.00;;;;;;;;6491286;39;9576;-63
2024/04/18 15:40:24;;;;;;;;;3.00;3.00;;;;;;;;6493654;39;8924;-65
2024/04/18 15:46:38;;;;;;;;;1.00;1.00;;;;;;;;6492160;46;8944;-62
2024/04/18 15:52:46;;;;;;;;;1.33;1.33;;;;;;;;6493904;31;8916;-62
2024/04/18 15:59:07;;;;;;;;;2.00;2.00;;;;;;;;6493514;39;8936;-63
2024/04/18 16:05:24;;;;;;;;;2.67;2.67;;;;;;;;6493874;39;8946;-64
2024/04/18 16:11:49;;;;;;;;;3.00;1.00;;;;;;;;6492776;39;9576;-62
2024/04/18 16:18:05;;;;;;;;;5.67;2.00;;;;;;;;6493046;39;8909;-63
2024/04/18 16:24:08;;;;;;;;;2.00;2.00;;;;;;;;6492824;31;8942;-62
2024/04/18 16:30:10;;;;;;;;;3.67;3.67;;;;;;;;6492877;46;8879;-64
2024/04/18 16:36:16;;;;;;;;;7.33;5.00;;;;;;;;6493817;31;8967;-62
2024/04/18 16:42:27;;;;;;;;;3.00;3.00;;;;;;;;6492478;39;8983;-62
2024/04/18 16:48:29;;;;;;;;;6.75;4.00;;;;;;;;6493396;39;8887;-62
2024/04/18 16:54:35;;;;;;;;;3.00;3.00;;;;;;;;6493350;31;8880;-63
2024/04/18 17:00:38;;;;;;;;;7.00;6.00;;;;;;;;6493346;39;8811;-65
2024/04/18 17:06:49;;;;;;;;;14.50;13.25;;;;;;;;6491832;46;8963;-64
2024/04/18 17:12:51;;;;;;;;;11.25;9.75;;;;;;;;6491105;46;8911;-62
2024/04/18 17:19:19;;;;;;;;;6.75;5.50;;;;;;;;6312353;39;10000370;-61
2024/04/18 17:25:27;;;;;;;;;10.00;10.00;;;;;;;;6492254;39;8847;-62
2024/04/18 17:31:30;;;;;;;;;14.00;12.00;;;;;;;;6493225;39;8880;-64
2024/04/18 17:37:36;;;;;;;;;15.00;11.50;;;;;;;;6492260;39;8969;-62
2024/04/18 17:43:55;;;;;;;;;8.75;7.25;;;;;;;;6493536;31;8841;-62
2024/04/18 17:50:20;;;;;;;;;12.75;8.50;;;;;;;;6492520;39;8887;-63
2024/04/18 17:56:25;;;;;;;;;7.50;7.50;;;;;;;;6492596;46;8924;-64
2024/04/18 18:02:26;;;;;;;;;12.50;8.50;;;;;;;;6491961;46;8942;-63
2024/04/18 18:08:35;;;;;;;;;9.00;9.00;;;;;;;;6491468;46;8908;-63
2024/04/18 18:14:55;;;;;;;;;12.75;12.75;;;;;;;;6492383;46;8942;-62
2024/04/18 18:21:02;;;;;;;;;12.50;11.75;;;;;;;;6492212;39;9457;-61
2024/04/18 18:27:05;;;;;;;;;11.25;9.75;;;;;;;;6492676;39;8852;-63
2024/04/18 18:33:08;;;;;;;;;10.75;10.00;;;;;;;;6492004;39;8983;-62
2024/04/18 18:39:14;;;;;;;;;11.00;11.00;;;;;;;;6491295;39;9049;-63
2024/04/18 18:45:17;;;;;;;;;13.00;13.00;;;;;;;;6492147;39;8927;-62
2024/04/18 18:51:21;;;;;;;;;7.50;7.50;;;;;;;;6491528;39;9585;-62
2024/04/18 18:57:24;;;;;;;;;8.25;8.25;;;;;;;;6491929;39;8888;-62
2024/04/18 19:03:27;;;;;;;;;5.00;3.75;;;;;;;;6490694;47;8950;-63
2024/04/18 19:09:38;;;;;;;;;9.75;8.00;;;;;;;;6490679;39;9063;-63
2024/04/18 19:15:42;;;;;;;;;8.00;7.25;;;;;;;;6492510;39;9046;-63
2024/04/18 19:21:45;;;;;;;;;8.50;8.50;;;;;;;;6492665;39;8918;-62
2024/04/18 19:27:46;;;;;;;;;10.50;10.50;;;;;;;;6492921;39;8890;-63
2024/04/18 19:33:48;;;;;;;;;11.00;8.00;;;;;;;;6491896;46;8892;-61
2024/04/18 19:39:53;;;;;;;;;9.00;7.50;;;;;;;;6491682;39;8927;-62
2024/04/18 19:46:00;;;;;;;;;11.25;10.00;;;;;;;;6491308;46;8920;-64
2024/04/18 19:52:03;;;;;;;;;10.75;10.75;;;;;;;;6491917;31;8914;-62
2024/04/18 19:58:04;;;;;;;;;10.25;10.25;;;;;;;;6490497;46;8916;-63
2024/04/18 20:04:06;;;;;;;;;12.00;11.25;;;;;;;;6491407;39;9027;-62
2024/04/18 20:10:10;;;;;;;;;13.75;13.00;;;;;;;;6491269;46;8888;-63
2024/04/18 20:16:11;;;;;;;;;14.00;13.50;;;;;;;;6491567;39;8918;-62
2024/04/18 20:22:17;;;;;;;;;10.50;10.50;;;;;;;;6490651;46;8950;-61
2024/04/18 20:28:17;;;;;;;;;9.25;9.00;;;;;;;;6492029;39;9011;-62
2024/04/18 20:34:20;;;;;;;;;12.50;12.50;;;;;;;;6491275;39;9029;-61
2024/04/18 20:40:21;;;;;;;;;7.50;7.50;;;;;;;;6491116;46;8945;-62
2024/04/18 20:46:28;;;;;;;;;8.25;5.00;;;;;;;;6491572;31;8927;-62
2024/04/18 20:52:30;;;;;;;;;14.25;12.00;;;;;;;;6489880;31;9046;-61
2024/04/18 20:58:31;;;;;;;;;10.50;9.50;;;;;;;;6491164;46;8987;-62
2024/04/18 21:04:36;;;;;;;;;11.50;11.50;;;;;;;;6491295;39;8967;-62
2024/04/18 21:10:38;;;;;;;;;11.50;9.50;;;;;;;;6491637;39;8911;-61
2024/04/18 21:16:43;;;;;;;;;9.50;8.75;;;;;;;;6492040;31;8935;-61
2024/04/18 21:22:44;;;;;;;;;11.75;10.00;;;;;;;;6490953;46;8956;-65
2024/04/18 21:28:47;;;;;;;;;10.25;8.25;;;;;;;;6537392;36;8939;-62
2024/04/18 21:35:11;;;;;;;;;6.25;6.25;;;;;;;;6490400;39;8975;-62
2024/04/18 21:41:13;;;;;;;;;18.00;11.75;;;;;;;;6491511;39;8859;-63
2024/04/18 21:47:16;;;;;;;;;10.00;9.75;;;;;;;;6490831;31;8888;-63
2024/04/18 21:53:18;;;;;;;;;14.50;10.25;;;;;;;;6491080;39;8919;-62
2024/04/18 21:59:22;;;;;;;;;13.50;11.00;;;;;;;;6490351;46;8967;-63
2024/04/18 22:05:28;;;;;;;;;10.00;10.00;;;;;;;;6490772;39;8973;-61
2024/04/18 22:11:31;;;;;;;;;15.00;11.25;;;;;;;;6489845;46;8892;-62
2024/04/18 22:17:36;;;;;;;;;9.50;9.50;;;;;;;;6489986;46;9057;-62
2024/04/18 22:23:38;;;;;;;;;10.00;10.00;;;;;;;;6491654;31;9498;-61
2024/04/18 22:29:41;;;;;;;;;11.25;9.25;;;;;;;;6490780;47;8989;-61
2024/04/18 22:35:45;;;;;;;;;11.00;10.25;;;;;;;;6490369;39;8928;-61
2024/04/18 22:41:46;;;;;;;;;10.50;10.50;;;;;;;;6490462;39;8986;-62
2024/04/18 22:47:48;;;;;;;;;4.50;4.50;;;;;;;;6489743;46;8881;-62
2024/04/18 22:53:49;;;;;;;;;10.00;10.00;;;;;;;;6492361;39;8958;-62
2024/04/18 22:59:51;;;;;;;;;10.75;10.25;;;;;;;;6492243;39;9895;-61
2024/04/18 23:05:53;;;;;;;;;8.00;8.00;;;;;;;;6492827;39;8954;-63
2024/04/18 23:12:23;;;;;;;;;10.25;7.50;;;;;;;;6492473;39;8916;-64
2024/04/18 23:18:26;;;;;;;;;8.25;7.00;;;;;;;;6491420;46;9047;-61
2024/04/18 23:24:28;;;;;;;;;8.50;8.00;;;;;;;;6491823;39;8896;-61
2024/04/18 23:30:32;;;;;;;;;10.00;9.75;;;;;;;;6492172;39;8875;-62
2024/04/18 23:36:40;;;;;;;;;11.75;10.75;;;;;;;;6491875;39;9008;-62
2024/04/18 23:42:45;;;;;;;;;7.50;7.50;;;;;;;;6492091;39;9023;-61
2024/04/18 23:48:49;;;;;;;;;10.00;9.00;;;;;;;;6491770;39;8893;-60
2024/04/18 23:54:51;;;;;;;;;13.00;11.00;;;;;;;;6491807;39;8957;-61
